sensor_id;sensor_type;location;lat;lon;timestamp;P1;durP1;ratioP1;P2;durP2;ratioP2
70320;SDS011;61127;55.826;37.046;2022-07-01T00:00:23;6.47;;;2.72;;
70320;SDS011;61127;55.826;37.046;2022-07-01T00:02:50;6.00;;;2.75;;
70320;SDS011;61127;55.826;37.046;2022-07-01T00:05:16;5.80;;;2.90;;
70320;SDS011;61127;55.826;37.046;2022-07-01T00:07:46;7.85;;;3.33;;
70320;SDS011;61127;55.826;37.046;2022-07-01T00:10:12;4.90;;;2.80;;
70320;SDS011;61127;55.826;37.046;2022-07-01T00:12:39;5.38;;;2.88;;
70320;SDS011;61127;55.826;37.046;2022-07-01T00:15:05;8.20;;;3.40;;
70320;SDS011;61127;55.826;37.046;2022-07-01T00:17:31;6.53;;;3.40;;
70320;SDS011;61127;55.826;37.046;2022-07-01T00:19:57;4.75;;;2.97;;
70320;SDS011;61127;55.826;37.046;2022-07-01T00:22:23;6.05;;;3.03;;
70320;SDS011;61127;55.826;37.046;2022-07-01T00:24:50;6.55;;;2.92;;
70320;SDS011;61127;55.826;37.046;2022-07-01T00:27:17;7.00;;;3.40;;
70320;SDS011;61127;55.826;37.046;2022-07-01T00:29:43;5.75;;;3.15;;
70320;SDS011;61127;55.826;37.046;2022-07-01T00:32:11;5.47;;;3.03;;
70320;SDS011;61127;55.826;37.046;2022-07-01T00:34:37;5.22;;;3.22;;
70320;SDS011;61127;55.826;37.046;2022-07-01T00:37:04;7.28;;;3.00;;
70320;SDS011;61127;55.826;37.046;2022-07-01T00:39:29;5.50;;;2.90;;
70320;SDS011;61127;55.826;37.046;2022-07-01T00:42:01;7.22;;;3.15;;
70320;SDS011;61127;55.826;37.046;2022-07-01T00:44:28;5.90;;;2.95;;
70320;SDS011;61127;55.826;37.046;2022-07-01T00:46:56;6.47;;;2.65;;
70320;SDS011;61127;55.826;37.046;2022-07-01T00:49:25;9.43;;;3.10;;
70320;SDS011;61127;55.826;37.046;2022-07-01T00:51:54;6.78;;;3.15;;
70320;SDS011;61127;55.826;37.046;2022-07-01T00:54:21;8.85;;;3.35;;
70320;SDS011;61127;55.826;37.046;2022-07-01T00:56:47;8.15;;;3.10;;
70320;SDS011;61127;55.826;37.046;2022-07-01T00:59:14;5.13;;;3.03;;
70320;SDS011;61127;55.826;37.046;2022-07-01T01:01:41;6.33;;;3.20;;
70320;SDS011;61127;55.826;37.046;2022-07-01T01:04:07;6.10;;;2.92;;
70320;SDS011;61127;55.826;37.046;2022-07-01T01:06:34;6.68;;;3.40;;
70320;SDS011;61127;55.826;37.046;2022-07-01T01:09:00;6.22;;;2.90;;
70320;SDS011;61127;55.826;37.046;2022-07-01T01:11:26;6.93;;;3.78;;
70320;SDS011;61127;55.826;37.046;2022-07-01T01:13:54;6.67;;;3.13;;
70320;SDS011;61127;55.826;37.046;2022-07-01T01:16:21;4.88;;;2.95;;
70320;SDS011;61127;55.826;37.046;2022-07-01T01:18:49;7.10;;;3.00;;
70320;SDS011;61127;55.826;37.046;2022-07-01T01:21:16;6.75;;;3.13;;
70320;SDS011;61127;55.826;37.046;2022-07-01T01:23:43;7.00;;;3.10;;
70320;SDS011;61127;55.826;37.046;2022-07-01T01:26:19;4.67;;;2.97;;
70320;SDS011;61127;55.826;37.046;2022-07-01T01:28:47;5.25;;;2.70;;
70320;SDS011;61127;55.826;37.046;2022-07-01T01:31:14;12.05;;;3.53;;
70320;SDS011;61127;55.826;37.046;2022-07-01T01:33:42;6.22;;;2.90;;
70320;SDS011;61127;55.826;37.046;2022-07-01T01:36:08;5.07;;;2.92;;
70320;SDS011;61127;55.826;37.046;2022-07-01T01:38:34;7.03;;;3.17;;
70320;SDS011;61127;55.826;37.046;2022-07-01T01:41:02;9.18;;;3.05;;
70320;SDS011;61127;55.826;37.046;2022-07-01T01:43:31;6.60;;;3.10;;
70320;SDS011;61127;55.826;37.046;2022-07-01T01:46:00;6.18;;;3.17;;
70320;SDS011;61127;55.826;37.046;2022-07-01T01:48:27;6.38;;;2.90;;
70320;SDS011;61127;55.826;37.046;2022-07-01T01:50:54;6.23;;;2.80;;
70320;SDS011;61127;55.826;37.046;2022-07-01T01:53:22;6.13;;;2.90;;
70320;SDS011;61127;55.826;37.046;2022-07-01T01:55:49;5.65;;;3.17;;
70320;SDS011;61127;55.826;37.046;2022-07-01T01:58:15;4.72;;;2.75;;
70320;SDS011;61127;55.826;37.046;2022-07-01T02:00:41;4.45;;;3.28;;
70320;SDS011;61127;55.826;37.046;2022-07-01T02:03:10;7.27;;;3.27;;
70320;SDS011;61127;55.826;37.046;2022-07-01T02:05:36;6.10;;;3.08;;
70320;SDS011;61127;55.826;37.046;2022-07-01T02:08:03;4.80;;;2.67;;
70320;SDS011;61127;55.826;37.046;2022-07-01T02:10:29;4.38;;;2.75;;
70320;SDS011;61127;55.826;37.046;2022-07-01T02:12:57;5.25;;;3.00;;
70320;SDS011;61127;55.826;37.046;2022-07-01T02:15:23;6.20;;;2.90;;
70320;SDS011;61127;55.826;37.046;2022-07-01T02:17:49;5.32;;;3.15;;
70320;SDS011;61127;55.826;37.046;2022-07-01T02:20:17;7.35;;;3.10;;
70320;SDS011;61127;55.826;37.046;2022-07-01T02:22:44;5.78;;;2.80;;
70320;SDS011;61127;55.826;37.046;2022-07-01T02:25:10;8.95;;;3.00;;
70320;SDS011;61127;55.826;37.046;2022-07-01T02:27:36;7.33;;;3.37;;
70320;SDS011;61127;55.826;37.046;2022-07-01T02:30:02;10.85;;;3.28;;
70320;SDS011;61127;55.826;37.046;2022-07-01T02:32:32;4.45;;;2.75;;
70320;SDS011;61127;55.826;37.046;2022-07-01T02:34:58;9.15;;;3.30;;
70320;SDS011;61127;55.826;37.046;2022-07-01T02:37:24;7.73;;;3.00;;
70320;SDS011;61127;55.826;37.046;2022-07-01T02:39:50;5.18;;;3.30;;
70320;SDS011;61127;55.826;37.046;2022-07-01T02:42:16;7.50;;;3.08;;
70320;SDS011;61127;55.826;37.046;2022-07-01T02:44:48;7.43;;;2.92;;
70320;SDS011;61127;55.826;37.046;2022-07-01T02:47:14;4.93;;;2.97;;
70320;SDS011;61127;55.826;37.046;2022-07-01T02:49:40;6.63;;;2.90;;
70320;SDS011;61127;55.826;37.046;2022-07-01T02:52:07;5.03;;;2.80;;
70320;SDS011;61127;55.826;37.046;2022-07-01T02:54:33;7.75;;;3.30;;
70320;SDS011;61127;55.826;37.046;2022-07-01T02:56:59;6.13;;;3.10;;
70320;SDS011;61127;55.826;37.046;2022-07-01T02:59:26;6.10;;;3.30;;
70320;SDS011;61127;55.826;37.046;2022-07-01T03:01:53;5.68;;;3.10;;
70320;SDS011;61127;55.826;37.046;2022-07-01T03:04:19;6.53;;;3.20;;
70320;SDS011;61127;55.826;37.046;2022-07-01T03:06:45;10.80;;;3.10;;
70320;SDS011;61127;55.826;37.046;2022-07-01T03:09:11;6.70;;;3.10;;
70320;SDS011;61127;55.826;37.046;2022-07-01T03:11:37;5.67;;;3.30;;
70320;SDS011;61127;55.826;37.046;2022-07-01T03:14:03;6.13;;;2.88;;
70320;SDS011;61127;55.826;37.046;2022-07-01T03:16:29;7.70;;;3.10;;
70320;SDS011;61127;55.826;37.046;2022-07-01T03:18:55;4.50;;;2.88;;
70320;SDS011;61127;55.826;37.046;2022-07-01T03:21:22;9.10;;;2.90;;
70320;SDS011;61127;55.826;37.046;2022-07-01T03:23:50;5.93;;;2.78;;
70320;SDS011;61127;55.826;37.046;2022-07-01T03:26:15;5.32;;;2.70;;
70320;SDS011;61127;55.826;37.046;2022-07-01T03:28:41;7.07;;;2.80;;
70320;SDS011;61127;55.826;37.046;2022-07-01T03:31:07;8.27;;;2.90;;
70320;SDS011;61127;55.826;37.046;2022-07-01T03:33:35;4.72;;;2.78;;
70320;SDS011;61127;55.826;37.046;2022-07-01T03:36:00;5.78;;;3.22;;
70320;SDS011;61127;55.826;37.046;2022-07-01T03:38:27;7.20;;;2.40;;
70320;SDS011;61127;55.826;37.046;2022-07-01T03:40:52;4.30;;;2.20;;
70320;SDS011;61127;55.826;37.046;2022-07-01T03:43:19;6.97;;;2.30;;
70320;SDS011;61127;55.826;37.046;2022-07-01T03:45:44;4.75;;;2.25;;
70320;SDS011;61127;55.826;37.046;2022-07-01T03:48:11;4.68;;;2.30;;
70320;SDS011;61127;55.826;37.046;2022-07-01T03:50:37;5.05;;;2.40;;
70320;SDS011;61127;55.826;37.046;2022-07-01T03:53:04;3.40;;;2.00;;
70320;SDS011;61127;55.826;37.046;2022-07-01T03:55:48;5.03;;;2.00;;
70320;SDS011;61127;55.826;37.046;2022-07-01T03:58:14;5.80;;;2.20;;
70320;SDS011;61127;55.826;37.046;2022-07-01T04:00:40;4.10;;;2.10;;
70320;SDS011;61127;55.826;37.046;2022-07-01T04:03:06;7.40;;;2.17;;
70320;SDS011;61127;55.826;37.046;2022-07-01T04:05:33;8.27;;;2.22;;
70320;SDS011;61127;55.826;37.046;2022-07-01T04:08:04;4.30;;;2.40;;
70320;SDS011;61127;55.826;37.046;2022-07-01T04:10:31;4.32;;;2.00;;
70320;SDS011;61127;55.826;37.046;2022-07-01T04:13:02;3.38;;;1.92;;
70320;SDS011;61127;55.826;37.046;2022-07-01T04:15:29;4.47;;;2.30;;
70320;SDS011;61127;55.826;37.046;2022-07-01T04:17:56;7.47;;;2.10;;
70320;SDS011;61127;55.826;37.046;2022-07-01T04:20:22;8.60;;;2.28;;
70320;SDS011;61127;55.826;37.046;2022-07-01T04:22:49;6.32;;;2.17;;
70320;SDS011;61127;55.826;37.046;2022-07-01T04:25:15;5.35;;;2.00;;
70320;SDS011;61127;55.826;37.046;2022-07-01T04:27:42;4.27;;;1.77;;
70320;SDS011;61127;55.826;37.046;2022-07-01T04:30:08;7.60;;;2.03;;
70320;SDS011;61127;55.826;37.046;2022-07-01T04:32:34;7.40;;;1.88;;
70320;SDS011;61127;55.826;37.046;2022-07-01T04:35:01;4.50;;;2.22;;
70320;SDS011;61127;55.826;37.046;2022-07-01T04:37:28;8.15;;;2.00;;
70320;SDS011;61127;55.826;37.046;2022-07-01T04:39:55;8.37;;;1.77;;
70320;SDS011;61127;55.826;37.046;2022-07-01T04:42:22;3.50;;;1.70;;
70320;SDS011;61127;55.826;37.046;2022-07-01T04:44:48;4.75;;;2.05;;
70320;SDS011;61127;55.826;37.046;2022-07-01T04:47:14;5.93;;;1.80;;
70320;SDS011;61127;55.826;37.046;2022-07-01T04:49:40;7.88;;;1.88;;
70320;SDS011;61127;55.826;37.046;2022-07-01T04:52:06;4.72;;;1.80;;
70320;SDS011;61127;55.826;37.046;2022-07-01T04:54:32;5.10;;;1.83;;
70320;SDS011;61127;55.826;37.046;2022-07-01T04:56:58;4.93;;;1.90;;
70320;SDS011;61127;55.826;37.046;2022-07-01T04:59:24;4.32;;;1.70;;
70320;SDS011;61127;55.826;37.046;2022-07-01T05:01:51;4.47;;;1.75;;
70320;SDS011;61127;55.826;37.046;2022-07-01T05:04:17;4.37;;;1.90;;
70320;SDS011;61127;55.826;37.046;2022-07-01T05:06:44;3.42;;;1.80;;
70320;SDS011;61127;55.826;37.046;2022-07-01T05:09:10;4.25;;;2.03;;
70320;SDS011;61127;55.826;37.046;2022-07-01T05:11:36;5.30;;;2.03;;
70320;SDS011;61127;55.826;37.046;2022-07-01T05:14:04;4.03;;;1.55;;
70320;SDS011;61127;55.826;37.046;2022-07-01T05:16:31;4.83;;;1.77;;
70320;SDS011;61127;55.826;37.046;2022-07-01T05:18:58;4.78;;;1.63;;
70320;SDS011;61127;55.826;37.046;2022-07-01T05:21:43;2.45;;;1.52;;
70320;SDS011;61127;55.826;37.046;2022-07-01T05:24:22;3.22;;;1.80;;
70320;SDS011;61127;55.826;37.046;2022-07-01T05:26:49;9.38;;;1.60;;
70320;SDS011;61127;55.826;37.046;2022-07-01T05:29:15;3.03;;;1.60;;
70320;SDS011;61127;55.826;37.046;2022-07-01T05:31:42;4.13;;;1.70;;
70320;SDS011;61127;55.826;37.046;2022-07-01T05:34:08;3.78;;;1.80;;
70320;SDS011;61127;55.826;37.046;2022-07-01T05:36:34;5.95;;;1.50;;
70320;SDS011;61127;55.826;37.046;2022-07-01T05:39:00;5.65;;;1.55;;
70320;SDS011;61127;55.826;37.046;2022-07-01T05:41:26;3.70;;;1.50;;
70320;SDS011;61127;55.826;37.046;2022-07-01T05:43:53;4.90;;;1.45;;
70320;SDS011;61127;55.826;37.046;2022-07-01T05:46:19;4.07;;;1.20;;
70320;SDS011;61127;55.826;37.046;2022-07-01T05:48:45;2.22;;;1.23;;
70320;SDS011;61127;55.826;37.046;2022-07-01T05:51:11;4.97;;;1.10;;
70320;SDS011;61127;55.826;37.046;2022-07-01T05:53:38;2.80;;;1.20;;
70320;SDS011;61127;55.826;37.046;2022-07-01T05:56:04;4.22;;;1.20;;
70320;SDS011;61127;55.826;37.046;2022-07-01T05:58:30;4.55;;;1.30;;
70320;SDS011;61127;55.826;37.046;2022-07-01T06:00:56;4.13;;;1.10;;
70320;SDS011;61127;55.826;37.046;2022-07-01T06:03:22;3.45;;;1.15;;
70320;SDS011;61127;55.826;37.046;2022-07-01T06:05:48;4.70;;;1.23;;
70320;SDS011;61127;55.826;37.046;2022-07-01T06:08:14;2.55;;;1.23;;
70320;SDS011;61127;55.826;37.046;2022-07-01T06:10:40;3.90;;;1.10;;
70320;SDS011;61127;55.826;37.046;2022-07-01T06:13:06;2.97;;;1.27;;
70320;SDS011;61127;55.826;37.046;2022-07-01T06:15:32;2.13;;;1.10;;
70320;SDS011;61127;55.826;37.046;2022-07-01T06:17:58;2.53;;;1.20;;
70320;SDS011;61127;55.826;37.046;2022-07-01T06:20:24;3.27;;;1.10;;
70320;SDS011;61127;55.826;37.046;2022-07-01T06:22:50;1.42;;;1.15;;
70320;SDS011;61127;55.826;37.046;2022-07-01T06:25:16;3.78;;;1.10;;
70320;SDS011;61127;55.826;37.046;2022-07-01T06:27:44;3.03;;;1.25;;
70320;SDS011;61127;55.826;37.046;2022-07-01T06:30:11;5.00;;;1.00;;
70320;SDS011;61127;55.826;37.046;2022-07-01T06:32:37;3.67;;;1.07;;
70320;SDS011;61127;55.826;37.046;2022-07-01T06:35:04;4.05;;;0.90;;
70320;SDS011;61127;55.826;37.046;2022-07-01T06:37:31;2.22;;;1.00;;
70320;SDS011;61127;55.826;37.046;2022-07-01T06:40:05;3.30;;;1.10;;
70320;SDS011;61127;55.826;37.046;2022-07-01T06:42:32;4.13;;;1.27;;
70320;SDS011;61127;55.826;37.046;2022-07-01T06:44:58;5.63;;;1.30;;
70320;SDS011;61127;55.826;37.046;2022-07-01T06:47:25;7.55;;;1.48;;
70320;SDS011;61127;55.826;37.046;2022-07-01T06:49:51;2.25;;;1.10;;
70320;SDS011;61127;55.826;37.046;2022-07-01T06:52:18;6.30;;;1.10;;
70320;SDS011;61127;55.826;37.046;2022-07-01T06:54:44;5.87;;;1.20;;
70320;SDS011;61127;55.826;37.046;2022-07-01T06:57:10;3.53;;;1.30;;
70320;SDS011;61127;55.826;37.046;2022-07-01T06:59:35;2.20;;;1.13;;
70320;SDS011;61127;55.826;37.046;2022-07-01T07:02:04;2.67;;;1.30;;
70320;SDS011;61127;55.826;37.046;2022-07-01T07:04:32;1.97;;;1.10;;
70320;SDS011;61127;55.826;37.046;2022-07-01T07:07:00;3.10;;;1.00;;
70320;SDS011;61127;55.826;37.046;2022-07-01T07:09:26;1.15;;;0.80;;
70320;SDS011;61127;55.826;37.046;2022-07-01T07:11:52;2.38;;;0.95;;
70320;SDS011;61127;55.826;37.046;2022-07-01T07:14:18;2.80;;;0.85;;
70320;SDS011;61127;55.826;37.046;2022-07-01T07:16:44;4.80;;;1.00;;
70320;SDS011;61127;55.826;37.046;2022-07-01T07:19:10;4.57;;;1.08;;
70320;SDS011;61127;55.826;37.046;2022-07-01T07:21:36;2.47;;;1.10;;
70320;SDS011;61127;55.826;37.046;2022-07-01T07:24:02;2.05;;;1.00;;
70320;SDS011;61127;55.826;37.046;2022-07-01T07:26:29;3.83;;;1.40;;
70320;SDS011;61127;55.826;37.046;2022-07-01T07:28:55;4.00;;;1.20;;
70320;SDS011;61127;55.826;37.046;2022-07-01T07:31:21;3.90;;;0.90;;
70320;SDS011;61127;55.826;37.046;2022-07-01T07:33:48;2.67;;;1.10;;
70320;SDS011;61127;55.826;37.046;2022-07-01T07:36:14;4.43;;;1.10;;
70320;SDS011;61127;55.826;37.046;2022-07-01T07:38:40;4.97;;;1.30;;
70320;SDS011;61127;55.826;37.046;2022-07-01T07:41:06;4.03;;;0.90;;
70320;SDS011;61127;55.826;37.046;2022-07-01T07:43:33;2.97;;;1.17;;
70320;SDS011;61127;55.826;37.046;2022-07-01T07:45:59;6.60;;;1.30;;
70320;SDS011;61127;55.826;37.046;2022-07-01T07:48:25;3.72;;;1.40;;
70320;SDS011;61127;55.826;37.046;2022-07-01T07:50:54;1.27;;;0.90;;
70320;SDS011;61127;55.826;37.046;2022-07-01T07:53:20;3.50;;;1.00;;
70320;SDS011;61127;55.826;37.046;2022-07-01T07:55:47;5.03;;;1.20;;
70320;SDS011;61127;55.826;37.046;2022-07-01T07:58:12;1.57;;;0.97;;
70320;SDS011;61127;55.826;37.046;2022-07-01T08:00:38;4.07;;;1.10;;
70320;SDS011;61127;55.826;37.046;2022-07-01T08:03:04;2.08;;;1.20;;
70320;SDS011;61127;55.826;37.046;2022-07-01T08:05:30;1.75;;;1.10;;
70320;SDS011;61127;55.826;37.046;2022-07-01T08:07:56;2.47;;;1.10;;
70320;SDS011;61127;55.826;37.046;2022-07-01T08:10:22;3.95;;;1.10;;
70320;SDS011;61127;55.826;37.046;2022-07-01T08:12:49;2.30;;;1.70;;
70320;SDS011;61127;55.826;37.046;2022-07-01T08:15:16;7.03;;;1.60;;
70320;SDS011;61127;55.826;37.046;2022-07-01T08:17:42;4.80;;;1.20;;
70320;SDS011;61127;55.826;37.046;2022-07-01T08:20:08;1.85;;;1.10;;
70320;SDS011;61127;55.826;37.046;2022-07-01T08:22:35;2.30;;;1.30;;
70320;SDS011;61127;55.826;37.046;2022-07-01T08:25:02;2.33;;;1.30;;
70320;SDS011;61127;55.826;37.046;2022-07-01T08:27:29;2.37;;;1.20;;
70320;SDS011;61127;55.826;37.046;2022-07-01T08:29:56;2.58;;;1.40;;
70320;SDS011;61127;55.826;37.046;2022-07-01T08:32:59;1.48;;;1.33;;
70320;SDS011;61127;55.826;37.046;2022-07-01T08:35:25;4.10;;;1.40;;
70320;SDS011;61127;55.826;37.046;2022-07-01T08:37:51;6.47;;;1.30;;
70320;SDS011;61127;55.826;37.046;2022-07-01T08:40:17;2.73;;;1.23;;
70320;SDS011;61127;55.826;37.046;2022-07-01T08:42:45;2.72;;;1.30;;
70320;SDS011;61127;55.826;37.046;2022-07-01T08:45:10;4.10;;;1.42;;
70320;SDS011;61127;55.826;37.046;2022-07-01T08:47:52;3.28;;;1.30;;
70320;SDS011;61127;55.826;37.046;2022-07-01T08:50:24;2.33;;;1.20;;
70320;SDS011;61127;55.826;37.046;2022-07-01T08:52:51;2.60;;;1.10;;
70320;SDS011;61127;55.826;37.046;2022-07-01T08:55:18;2.72;;;1.10;;
70320;SDS011;61127;55.826;37.046;2022-07-01T08:57:49;2.28;;;1.33;;
70320;SDS011;61127;55.826;37.046;2022-07-01T09:00:16;2.50;;;1.30;;
70320;SDS011;61127;55.826;37.046;2022-07-01T09:02:53;3.03;;;1.37;;
70320;SDS011;61127;55.826;37.046;2022-07-01T09:05:24;2.28;;;1.30;;
70320;SDS011;61127;55.826;37.046;2022-07-01T09:07:58;3.47;;;1.40;;
70320;SDS011;61127;55.826;37.046;2022-07-01T09:10:26;3.08;;;1.20;;
70320;SDS011;61127;55.826;37.046;2022-07-01T09:12:53;7.13;;;1.40;;
70320;SDS011;61127;55.826;37.046;2022-07-01T09:15:20;3.73;;;1.30;;
70320;SDS011;61127;55.826;37.046;2022-07-01T09:17:55;2.65;;;1.20;;
70320;SDS011;61127;55.826;37.046;2022-07-01T09:20:23;2.40;;;1.30;;
70320;SDS011;61127;55.826;37.046;2022-07-01T09:22:57;1.73;;;1.25;;
70320;SDS011;61127;55.826;37.046;2022-07-01T09:25:42;2.17;;;1.20;;
70320;SDS011;61127;55.826;37.046;2022-07-01T09:28:19;5.23;;;1.20;;
70320;SDS011;61127;55.826;37.046;2022-07-01T09:30:48;3.78;;;1.33;;
70320;SDS011;61127;55.826;37.046;2022-07-01T09:33:24;5.22;;;1.45;;
70320;SDS011;61127;55.826;37.046;2022-07-01T09:35:51;5.68;;;2.95;;
70320;SDS011;61127;55.826;37.046;2022-07-01T09:38:19;2.70;;;1.48;;
70320;SDS011;61127;55.826;37.046;2022-07-01T09:40:54;4.53;;;1.50;;
70320;SDS011;61127;55.826;37.046;2022-07-01T09:43:23;5.20;;;1.35;;
70320;SDS011;61127;55.826;37.046;2022-07-01T09:45:54;2.67;;;1.33;;
70320;SDS011;61127;55.826;37.046;2022-07-01T09:48:25;3.30;;;1.30;;
70320;SDS011;61127;55.826;37.046;2022-07-01T09:51:07;2.40;;;1.40;;
70320;SDS011;61127;55.826;37.046;2022-07-01T09:53:34;4.47;;;1.70;;
70320;SDS011;61127;55.826;37.046;2022-07-01T09:56:00;3.13;;;1.60;;
70320;SDS011;61127;55.826;37.046;2022-07-01T09:58:26;3.13;;;1.60;;
70320;SDS011;61127;55.826;37.046;2022-07-01T10:00:53;4.30;;;1.58;;
70320;SDS011;61127;55.826;37.046;2022-07-01T10:03:19;5.68;;;1.40;;
70320;SDS011;61127;55.826;37.046;2022-07-01T10:05:47;2.83;;;1.40;;
70320;SDS011;61127;55.826;37.046;2022-07-01T10:14:06;2.13;;;1.70;;
70320;SDS011;61127;55.826;37.046;2022-07-01T10:16:34;2.75;;;1.80;;
70320;SDS011;61127;55.826;37.046;2022-07-01T10:21:46;5.65;;;2.00;;
70320;SDS011;61127;55.826;37.046;2022-07-01T10:24:12;2.35;;;1.90;;
70320;SDS011;61127;55.826;37.046;2022-07-01T10:26:40;4.35;;;2.03;;
70320;SDS011;61127;55.826;37.046;2022-07-01T10:31:57;4.43;;;2.37;;
70320;SDS011;61127;55.826;37.046;2022-07-01T10:34:36;6.60;;;2.15;;
70320;SDS011;61127;55.826;37.046;2022-07-01T10:37:05;4.30;;;2.25;;
70320;SDS011;61127;55.826;37.046;2022-07-01T10:42:34;3.90;;;2.40;;
70320;SDS011;61127;55.826;37.046;2022-07-01T10:45:20;4.13;;;2.40;;
70320;SDS011;61127;55.826;37.046;2022-07-01T10:47:46;3.65;;;2.42;;
70320;SDS011;61127;55.826;37.046;2022-07-01T10:50:13;4.10;;;2.20;;
70320;SDS011;61127;55.826;37.046;2022-07-01T10:53:03;4.28;;;2.88;;
70320;SDS011;61127;55.826;37.046;2022-07-01T10:55:40;9.57;;;2.57;;
70320;SDS011;61127;55.826;37.046;2022-07-01T10:58:10;6.28;;;2.60;;
70320;SDS011;61127;55.826;37.046;2022-07-01T11:00:36;4.90;;;2.72;;
70320;SDS011;61127;55.826;37.046;2022-07-01T11:03:10;4.38;;;4.00;;
70320;SDS011;61127;55.826;37.046;2022-07-01T11:05:36;4.57;;;2.70;;
70320;SDS011;61127;55.826;37.046;2022-07-01T11:08:06;6.43;;;2.83;;
70320;SDS011;61127;55.826;37.046;2022-07-01T11:10:33;5.05;;;2.80;;
70320;SDS011;61127;55.826;37.046;2022-07-01T11:13:00;3.75;;;2.88;;
70320;SDS011;61127;55.826;37.046;2022-07-01T11:15:30;4.35;;;2.72;;
70320;SDS011;61127;55.826;37.046;2022-07-01T11:17:57;4.33;;;2.33;;
70320;SDS011;61127;55.826;37.046;2022-07-01T11:20:25;2.58;;;2.38;;
70320;SDS011;61127;55.826;37.046;2022-07-01T11:22:52;4.50;;;2.80;;
70320;SDS011;61127;55.826;37.046;2022-07-01T11:25:19;6.78;;;3.05;;
70320;SDS011;61127;55.826;37.046;2022-07-01T11:27:47;5.15;;;2.53;;
70320;SDS011;61127;55.826;37.046;2022-07-01T11:30:17;3.97;;;3.00;;
70320;SDS011;61127;55.826;37.046;2022-07-01T11:32:54;3.33;;;2.90;;
70320;SDS011;61127;55.826;37.046;2022-07-01T11:35:27;5.70;;;3.00;;
70320;SDS011;61127;55.826;37.046;2022-07-01T11:38:25;5.88;;;3.00;;
70320;SDS011;61127;55.826;37.046;2022-07-01T11:41:17;6.38;;;3.38;;
70320;SDS011;61127;55.826;37.046;2022-07-01T11:43:48;4.40;;;3.00;;
70320;SDS011;61127;55.826;37.046;2022-07-01T11:46:16;5.50;;;3.28;;
70320;SDS011;61127;55.826;37.046;2022-07-01T11:48:43;5.45;;;3.42;;
70320;SDS011;61127;55.826;37.046;2022-07-01T11:51:15;3.40;;;3.10;;
70320;SDS011;61127;55.826;37.046;2022-07-01T11:53:55;4.18;;;3.10;;
70320;SDS011;61127;55.826;37.046;2022-07-01T11:56:28;4.00;;;3.50;;
70320;SDS011;61127;55.826;37.046;2022-07-01T11:59:04;4.75;;;3.40;;
70320;SDS011;61127;55.826;37.046;2022-07-01T12:01:31;4.18;;;3.75;;
70320;SDS011;61127;55.826;37.046;2022-07-01T12:03:59;5.75;;;3.95;;
70320;SDS011;61127;55.826;37.046;2022-07-01T12:06:27;6.07;;;4.00;;
70320;SDS011;61127;55.826;37.046;2022-07-01T12:08:55;4.60;;;3.90;;
70320;SDS011;61127;55.826;37.046;2022-07-01T12:11:22;6.65;;;4.03;;
70320;SDS011;61127;55.826;37.046;2022-07-01T12:13:50;5.20;;;3.80;;
70320;SDS011;61127;55.826;37.046;2022-07-01T12:16:17;5.15;;;4.07;;
70320;SDS011;61127;55.826;37.046;2022-07-01T12:18:57;6.33;;;3.50;;
70320;SDS011;61127;55.826;37.046;2022-07-01T12:21:28;5.78;;;3.90;;
70320;SDS011;61127;55.826;37.046;2022-07-01T12:24:06;4.80;;;4.15;;
70320;SDS011;61127;55.826;37.046;2022-07-01T12:27:19;6.35;;;3.30;;
70320;SDS011;61127;55.826;37.046;2022-07-01T12:29:47;4.32;;;3.55;;
70320;SDS011;61127;55.826;37.046;2022-07-01T12:32:24;6.37;;;4.07;;
70320;SDS011;61127;55.826;37.046;2022-07-01T12:34:54;3.40;;;3.10;;
70320;SDS011;61127;55.826;37.046;2022-07-01T12:37:31;4.07;;;3.38;;
70320;SDS011;61127;55.826;37.046;2022-07-01T12:40:03;5.47;;;3.20;;
70320;SDS011;61127;55.826;37.046;2022-07-01T12:42:43;9.57;;;3.20;;
70320;SDS011;61127;55.826;37.046;2022-07-01T12:45:13;5.40;;;3.30;;
70320;SDS011;61127;55.826;37.046;2022-07-01T12:47:44;5.90;;;3.35;;
70320;SDS011;61127;55.826;37.046;2022-07-01T12:50:22;6.32;;;3.88;;
70320;SDS011;61127;55.826;37.046;2022-07-01T12:53:02;4.97;;;3.45;;
70320;SDS011;61127;55.826;37.046;2022-07-01T12:55:33;6.05;;;3.17;;
70320;SDS011;61127;55.826;37.046;2022-07-01T12:58:11;5.43;;;3.30;;
70320;SDS011;61127;55.826;37.046;2022-07-01T13:00:44;5.25;;;3.45;;
70320;SDS011;61127;55.826;37.046;2022-07-01T13:03:11;5.35;;;3.50;;
70320;SDS011;61127;55.826;37.046;2022-07-01T13:05:40;4.32;;;3.58;;
70320;SDS011;61127;55.826;37.046;2022-07-01T13:08:06;5.32;;;3.70;;
70320;SDS011;61127;55.826;37.046;2022-07-01T13:10:33;4.03;;;3.50;;
70320;SDS011;61127;55.826;37.046;2022-07-01T13:12:59;6.18;;;3.00;;
70320;SDS011;61127;55.826;37.046;2022-07-01T13:15:26;4.25;;;3.38;;
70320;SDS011;61127;55.826;37.046;2022-07-01T13:17:52;5.35;;;2.80;;
70320;SDS011;61127;55.826;37.046;2022-07-01T13:20:19;4.90;;;3.20;;
70320;SDS011;61127;55.826;37.046;2022-07-01T13:22:45;4.50;;;3.15;;
70320;SDS011;61127;55.826;37.046;2022-07-01T13:25:12;5.32;;;3.20;;
70320;SDS011;61127;55.826;37.046;2022-07-01T13:27:39;4.43;;;2.72;;
70320;SDS011;61127;55.826;37.046;2022-07-01T13:30:06;4.18;;;2.97;;
70320;SDS011;61127;55.826;37.046;2022-07-01T13:32:34;4.40;;;3.10;;
70320;SDS011;61127;55.826;37.046;2022-07-01T13:35:01;5.20;;;3.00;;
70320;SDS011;61127;55.826;37.046;2022-07-01T13:37:30;7.72;;;3.42;;
70320;SDS011;61127;55.826;37.046;2022-07-01T13:39:56;6.57;;;2.65;;
70320;SDS011;61127;55.826;37.046;2022-07-01T13:42:22;2.90;;;2.60;;
70320;SDS011;61127;55.826;37.046;2022-07-01T13:44:48;5.57;;;2.30;;
70320;SDS011;61127;55.826;37.046;2022-07-01T13:47:15;2.58;;;2.38;;
70320;SDS011;61127;55.826;37.046;2022-07-01T13:49:42;4.18;;;2.05;;
70320;SDS011;61127;55.826;37.046;2022-07-01T13:52:09;5.07;;;2.10;;
70320;SDS011;61127;55.826;37.046;2022-07-01T13:54:36;4.40;;;2.03;;
70320;SDS011;61127;55.826;37.046;2022-07-01T13:57:02;2.90;;;1.75;;
70320;SDS011;61127;55.826;37.046;2022-07-01T13:59:28;2.10;;;1.90;;
70320;SDS011;61127;55.826;37.046;2022-07-01T14:01:56;6.05;;;1.85;;
70320;SDS011;61127;55.826;37.046;2022-07-01T14:04:23;8.38;;;1.70;;
70320;SDS011;61127;55.826;37.046;2022-07-01T14:06:49;3.10;;;1.70;;
70320;SDS011;61127;55.826;37.046;2022-07-01T14:09:15;2.88;;;1.70;;
70320;SDS011;61127;55.826;37.046;2022-07-01T14:11:41;3.67;;;1.40;;
70320;SDS011;61127;55.826;37.046;2022-07-01T14:14:08;2.08;;;1.30;;
70320;SDS011;61127;55.826;37.046;2022-07-01T14:16:34;5.40;;;1.93;;
70320;SDS011;61127;55.826;37.046;2022-07-01T14:19:00;4.63;;;1.20;;
70320;SDS011;61127;55.826;37.046;2022-07-01T14:21:26;1.42;;;1.15;;
70320;SDS011;61127;55.826;37.046;2022-07-01T14:23:54;1.90;;;1.20;;
70320;SDS011;61127;55.826;37.046;2022-07-01T14:26:19;5.15;;;1.58;;
70320;SDS011;61127;55.826;37.046;2022-07-01T14:28:46;4.37;;;1.30;;
70320;SDS011;61127;55.826;37.046;2022-07-01T14:31:12;3.92;;;1.42;;
70320;SDS011;61127;55.826;37.046;2022-07-01T14:33:39;2.92;;;2.08;;
70320;SDS011;61127;55.826;37.046;2022-07-01T14:36:05;9.18;;;2.50;;
70320;SDS011;61127;55.826;37.046;2022-07-01T14:38:31;2.47;;;1.10;;
70320;SDS011;61127;55.826;37.046;2022-07-01T14:40:57;3.42;;;1.48;;
70320;SDS011;61127;55.826;37.046;2022-07-01T14:43:25;3.78;;;2.00;;
70320;SDS011;61127;55.826;37.046;2022-07-01T14:45:52;2.88;;;1.90;;
70320;SDS011;61127;55.826;37.046;2022-07-01T14:48:18;4.30;;;2.63;;
70320;SDS011;61127;55.826;37.046;2022-07-01T14:50:44;4.70;;;1.42;;
70320;SDS011;61127;55.826;37.046;2022-07-01T14:53:11;1.83;;;1.30;;